Latest Weather Observations for Scotts Peak

IDT60801

Issued at 4:31 pm EDT Wednesday 1 April 2015 (issued every 30 minutes, with the page automatically refreshed every 10 minutes)

About weather observations | Map of weather stations | Latest weather observations for TAS | Other Formats
Station Details ID: 097083 Name: SCOTTS PEAK DAM Lat: -43.04 Lon: 146.27 Height: 408.0 m
Data from the previous 72 hours. | See also: Recent months at Scotts Peak
Date/Time
EDT
Temp
°C
App
Temp
°C
Dew
Point
Rel
Hum
%
Delta-T
°C
Wind Press
QNH
hPa
Press
MSL
hPa
Rain
since 9 am
mm
Dir
 
Spd
km/h
Gust
km/h
Spd
kts
Gust
kts
01/04:30pm 19.1 10.6 9.3 53 5.3 NNW 44 59 24 32 - - 0.0
01/04:04pm 19.5 12.0 9.4 52 5.5 NW 39 61 21 33 - - 0.0
01/04:00pm 19.4 12.3 9.6 53 5.3 NNW 37 52 20 28 - - 0.0
01/03:36pm 19.9 10.9 8.9 49 5.9 NNW 46 65 25 35 - - 0.0
01/03:30pm 20.0 11.3 8.4 47 6.2 NNW 44 56 24 30 - - 0.0
01/03:00pm 21.7 11.3 9.3 45 6.8 NW 54 74 29 40 - - 0.0
01/02:30pm 21.8 10.5 8.0 41 7.4 NW 57 78 31 42 - - 0.0
01/02:00pm 22.6 11.2 9.0 42 7.4 NW 59 82 32 44 - - 0.0
01/01:30pm 22.3 13.0 7.7 39 7.8 NW 46 70 25 38 - - 0.0
01/01:11pm 23.4 15.2 9.8 42 7.6 NW 43 61 23 33 - - 0.0
01/01:00pm 22.1 13.2 9.3 44 7.0 NW 46 57 25 31 - - 0.0
01/12:30pm 20.4 12.8 9.0 48 6.1 NNW 39 56 21 30 - - 0.0
01/12:01pm 20.0 13.2 9.3 50 5.8 NNW 35 54 19 29 - - 0.0
01/12:00pm 20.1 13.0 9.4 50 5.8 NNW 37 54 20 29 - - 0.0
01/11:52am 20.1 13.6 9.1 49 5.9 N 33 52 18 28 - - 0.0
01/11:30am 21.6 15.5 9.8 47 6.5 N 32 39 17 21 - - 0.0
01/11:00am 19.6 14.7 8.3 48 6.0 N 24 37 13 20 - - 0.0
01/10:30am 18.3 14.2 7.7 50 5.5 N 19 30 10 16 - - 0.0
01/10:00am 17.5 13.0 7.0 50 5.3 N 20 30 11 16 - - 0.0
01/09:30am 16.4 9.6 7.1 54 4.7 N 32 41 17 22 - - 0.0
01/09:00am 14.7 7.7 7.0 60 3.8 N 33 41 18 22 - - 0.0
01/08:30am 13.6 8.7 6.9 64 3.3 N 22 32 12 17 - - 0.0
01/08:00am 13.4 8.5 6.7 64 3.3 N 22 35 12 19 - - 0.0
01/07:30am 11.9 9.3 7.8 76 2.0 NE 11 20 6 11 - - 0.0
01/07:00am 12.0 6.6 7.9 76 2.0 N 26 32 14 17 - - 0.0
01/06:30am 12.0 5.5 8.1 77 2.0 N 32 39 17 21 - - 0.0
01/06:00am 11.6 6.8 9.0 84 1.3 N 24 30 13 16 - - 0.0
01/05:30am 11.3 5.5 9.4 88 1.0 N 30 37 16 20 - - 0.0
01/05:00am 10.6 6.4 9.7 94 0.5 N 22 30 12 16 - - 0.0
01/04:30am 10.6 4.9 9.7 94 0.5 N 30 35 16 19 - - 0.0
01/04:00am 10.6 5.7 9.8 95 0.4 N 26 32 14 17 - - 0.0
01/03:30am 10.7 6.2 9.9 95 0.4 N 24 33 13 18 - - 0.0
01/03:00am 10.8 4.6 10.0 95 0.4 N 33 41 18 22 - - 0.0
01/02:30am 10.9 4.7 10.0 94 0.5 N 33 39 18 21 - - 0.0
01/02:00am 11.1 5.8 10.0 93 0.6 N 28 35 15 19 - - 0.0
01/01:30am 11.2 6.3 9.8 91 0.7 NNW 26 30 14 16 - - 0.0
01/01:00am 11.4 6.5 10.0 91 0.7 NNW 26 32 14 17 - - 0.0
01/12:30am 11.5 7.4 10.1 91 0.7 NNW 22 28 12 15 - - 0.0
01/12:00am 11.7 7.7 10.3 91 0.7 NNW 22 28 12 15 - - 0.0
 
Date/Time
EDT
Temp
°C
App
Temp
°C
Dew
Point
Rel
Hum
%
Delta-T
°C
Wind Press
QNH
hPa
Press
MSL
hPa
Rain
since 9 am
mm
Dir
 
Spd
km/h
Gust
km/h
Spd
kts
Gust
kts
31/11:30pm 11.8 6.6 10.2 90 0.8 NNW 28 35 15 19 - - 0.0
31/11:00pm 11.8 7.0 10.2 90 0.8 NNW 26 32 14 17 - - 0.0
31/10:30pm 11.7 7.5 9.9 89 0.9 NNW 22 30 12 16 - - 0.0
31/10:00pm 11.6 8.4 9.9 89 0.9 NNW 17 20 9 11 - - 0.0
31/09:30pm 11.5 7.9 9.9 90 0.8 NNW 19 30 10 16 - - 0.0
31/09:00pm 11.1 7.7 9.2 88 1.0 NNW 17 22 9 12 - - 0.0
31/08:30pm 11.1 7.2 8.8 86 1.2 NW 19 26 10 14 - - 0.0
31/08:00pm 11.3 7.3 9.0 86 1.2 NW 20 26 11 14 - - 0.0
31/07:30pm 11.6 8.2 9.2 85 1.2 NW 17 24 9 13 - - 0.0
31/07:00pm 12.6 8.9 9.4 81 1.7 WNW 19 24 10 13 - - 0.0
31/06:30pm 13.2 10.2 9.3 77 2.0 WNW 15 22 8 12 - - 0.0
31/06:00pm 14.6 10.4 9.8 73 2.5 NW 22 28 12 15 - - 0.0
31/05:30pm 14.7 10.4 9.3 70 2.8 NNW 22 28 12 15 - - 0.0
31/05:00pm 15.7 9.7 10.2 70 2.9 NNW 32 37 17 20 - - 0.0
31/04:30pm 16.9 11.7 10.1 64 3.7 NNW 28 33 15 18 - - 0.0
31/04:00pm 16.5 11.8 10.8 69 3.1 NNW 26 33 14 18 - - 0.0
31/03:30pm 16.6 11.8 11.7 73 2.7 NNW 28 32 15 17 - - 0.0
31/03:00pm 16.6 11.6 11.1 70 3.0 NNW 28 32 15 17 - - 0.0
31/02:30pm 16.3 11.4 11.2 72 2.8 NNW 28 35 15 19 - - 0.0
31/02:00pm 15.7 10.6 10.5 71 2.8 NNW 28 35 15 19 - - 0.0
31/01:30pm 17.5 12.8 12.0 70 3.1 NNW 28 35 15 19 - - 0.0
31/01:00pm 17.7 12.0 11.3 66 3.5 NNW 32 39 17 21 - - 0.0
31/12:30pm 14.9 9.0 10.3 74 2.5 NNW 32 39 17 21 - - 0.0
31/12:00pm 14.3 8.8 10.5 78 2.0 N 30 35 16 19 - - 0.0
31/11:30am 13.6 7.6 10.2 80 1.8 NNW 32 39 17 21 - - 0.0
31/11:00am 12.5 7.7 10.2 86 1.2 N 26 32 14 17 - - 0.0
31/10:30am 12.6 7.7 10.0 84 1.4 NNW 26 33 14 18 - - 0.0
31/10:00am 12.0 7.5 10.1 88 1.0 NNW 24 32 13 17 - - 0.0
31/09:30am 11.6 6.7 10.0 90 0.8 N 26 35 14 19 - - 0.0
31/09:00am 11.0 6.4 9.8 92 0.6 N 24 28 13 15 - - 0.6
31/08:30am 10.7 6.1 9.8 94 0.5 N 24 30 13 16 - - 0.6
31/08:00am 10.6 5.6 9.5 93 0.6 N 26 30 14 16 - - 0.6
31/07:30am 10.3 6.3 9.2 93 0.6 N 20 26 11 14 - - 0.6
31/07:00am 10.3 5.6 9.4 94 0.5 NNW 24 32 13 17 - - 0.6
31/06:30am 10.3 4.9 9.4 94 0.5 N 28 33 15 18 - - 0.6
31/06:00am 10.5 5.1 9.4 93 0.6 N 28 33 15 18 - - 0.6
31/05:30am 10.6 6.2 9.0 90 0.8 NNW 22 32 12 17 - - 0.6
31/05:00am 10.7 5.5 8.8 88 1.0 NNW 26 32 14 17 - - 0.6
31/04:30am 10.7 5.1 8.8 88 1.0 NNW 28 32 15 17 - - 0.6
31/04:00am 10.7 5.5 9.0 89 0.9 NW 26 32 14 17 - - 0.6
31/03:30am 10.8 5.7 9.2 90 0.8 NNW 26 32 14 17 - - 0.6
31/03:00am 10.8 5.7 9.2 90 0.8 NNW 26 30 14 16 - - 0.6
31/02:30am 10.7 6.7 9.1 90 0.8 NNW 20 24 11 13 - - 0.6
31/02:00am 10.6 6.6 9.0 90 0.8 NNW 20 26 11 14 - - 0.6
31/01:30am 10.4 6.9 8.7 89 0.9 NNW 17 26 9 14 - - 0.6
31/01:00am 10.6 6.7 8.5 87 1.1 NW 19 24 10 13 - - 0.6
31/12:30am 10.7 4.4 8.8 88 1.0 NNW 32 35 17 19 - - 0.6
31/12:00am 10.8 6.0 8.9 88 1.0 NNW 24 30 13 16 - - 0.6
 
Date/Time
EDT
Temp
°C
App
Temp
°C
Dew
Point
Rel
Hum
%
Delta-T
°C
Wind Press
QNH
hPa
Press
MSL
hPa
Rain
since 9 am
mm
Dir
 
Spd
km/h
Gust
km/h
Spd
kts
Gust
kts
30/11:30pm 10.7 6.7 8.1 84 1.3 NW 19 24 10 13 - - 0.6
30/11:00pm 10.5 6.3 8.3 86 1.1 NW 20 24 11 13 - - 0.6
30/10:30pm 10.8 5.9 8.6 86 1.1 NW 24 30 13 16 - - 0.6
30/10:00pm 10.7 6.6 8.6 87 1.1 NW 20 26 11 14 - - 0.6
30/09:30pm 10.8 5.2 8.6 86 1.1 NW 28 37 15 20 - - 0.6
30/09:00pm 11.0 3.7 8.6 85 1.2 WNW 37 41 20 22 - - 0.6
30/08:30pm 11.2 3.1 8.6 84 1.3 WNW 41 48 22 26 - - 0.6
30/08:00pm 11.1 3.9 9.2 88 1.0 NW 37 48 20 26 - - 0.6
30/07:30pm 11.2 3.5 8.8 85 1.2 NW 39 48 21 26 - - 0.6
30/07:00pm 11.3 2.9 8.9 85 1.2 WNW 43 54 23 29 - - 0.6
30/06:30pm 11.5 3.5 8.9 84 1.3 WNW 41 50 22 27 - - 0.6
30/06:02pm 11.8 4.3 9.4 85 1.2 NW 39 57 21 31 - - 0.6
30/06:00pm 11.9 4.8 9.5 85 1.2 NW 37 52 20 28 - - 0.6
30/05:30pm 12.8 7.1 8.5 75 2.2 WNW 28 41 15 22 - - 0.6
30/05:00pm 12.8 5.8 8.5 75 2.2 WNW 35 44 19 24 - - 0.6
30/04:30pm 12.8 4.3 8.5 75 2.2 WNW 43 50 23 27 - - 0.6
30/04:00pm 13.2 4.6 8.3 72 2.5 WNW 43 57 23 31 - - 0.6
30/03:30pm 13.1 4.6 9.2 77 2.0 WNW 44 56 24 30 - - 0.6
30/03:00pm 13.4 7.3 9.6 78 2.0 WNW 32 39 17 21 - - 0.6
30/02:37pm 13.1 7.3 9.4 78 1.9 WNW 30 48 16 26 - - 0.6
30/02:30pm 12.9 7.6 9.7 81 1.7 WNW 28 35 15 19 - - 0.6
30/02:00pm 13.0 7.3 9.8 81 1.7 NW 30 41 16 22 - - 0.6
30/01:30pm 12.5 5.5 9.9 84 1.4 NW 37 52 20 28 - - 0.6
30/01:00pm 12.3 6.0 10.9 91 0.7 NW 35 46 19 25 - - 0.6
30/12:30pm 13.6 8.6 11.1 85 1.3 NNW 28 33 15 18 - - 0.6
30/12:00pm 14.3 11.6 11.6 84 1.5 NNW 17 28 9 15 - - 0.6
30/11:30am 14.0 7.8 11.3 84 1.5 WNW 35 48 19 26 - - 0.6
30/11:00am 13.0 7.8 11.6 91 0.8 NW 30 41 16 22 - - 0.6
30/10:43am 12.1 8.0 11.3 95 0.4 NW 24 41 13 22 - - 0.6
30/10:30am 12.3 10.1 12.0 98 0.2 NNW 15 20 8 11 - - 0.6
30/10:00am 12.1 10.2 11.8 98 0.2 NNW 13 15 7 8 - - 0.2
30/09:30am 11.0 7.6 10.5 97 0.3 NNW 19 20 10 11 - - 0.2
30/09:00am 10.7 6.6 10.1 96 0.3 NW 22 30 12 16 - - 3.6
30/08:30am 10.5 6.3 9.6 94 0.5 NW 22 28 12 15 - - 3.6
30/08:00am 10.7 4.2 9.1 90 0.8 WNW 33 44 18 24 - - 3.6
30/07:30am 10.3 1.4 9.1 92 0.6 NW 46 57 25 31 - - 3.6
30/07:00am 10.3 2.3 9.1 92 0.6 NW 41 48 22 26 - - 3.6
30/06:54am 10.5 2.1 8.9 90 0.8 NW 43 54 23 29 - - 3.6
30/06:30am 10.8 -0.1 8.7 87 1.1 NW 56 76 30 41 - - 3.6
30/06:26am 10.9 -0.1 8.5 85 1.2 NW 56 76 30 41 - - 3.6
30/06:22am 10.9 1.0 8.3 84 1.3 WNW 50 76 27 41 - - 3.6
30/06:12am 11.0 2.7 7.9 81 1.5 NW 41 65 22 35 - - 3.4
30/06:00am 11.2 2.8 7.3 77 1.9 WNW 41 57 22 31 - - 3.4
30/05:57am 11.0 3.0 7.3 78 1.8 WNW 39 57 21 31 - - 3.4
30/05:30am 10.7 3.7 7.0 78 1.8 NW 33 43 18 23 - - 3.4
30/05:11am 10.8 2.6 6.6 75 2.0 NW 39 59 21 32 - - 3.4
30/05:00am 10.6 1.5 6.7 77 1.9 NW 44 56 24 30 - - 3.4
30/04:33am 11.4 3.1 7.9 79 1.7 WNW 41 61 22 33 - - 3.4
30/04:30am 11.4 3.9 8.1 80 1.6 WNW 37 54 20 29 - - 3.4
30/04:26am 11.5 5.0 8.0 79 1.7 NW 32 54 17 29 - - 3.4
30/04:00am 11.3 5.9 7.8 79 1.7 NW 26 33 14 18 - - 3.4
30/03:30am 11.4 6.6 8.8 84 1.3 NW 24 33 13 18 - - 3.4
30/03:00am 10.8 5.6 8.9 88 1.0 NNW 26 35 14 19 - - 3.4
30/02:30am 10.5 5.6 8.3 86 1.1 NNW 24 33 13 18 - - 3.4
30/02:00am 10.3 5.6 7.9 85 1.2 NNW 22 33 12 18 - - 3.4
30/01:38am 11.0 5.7 6.6 74 2.1 NW 24 46 13 25 - - 3.4
30/01:30am 9.4 6.1 6.5 82 1.4 NW 13 17 7 9 - - 3.4
30/01:00am 9.9 5.2 6.2 78 1.8 WNW 20 22 11 12 - - 3.4
30/12:30am 10.1 5.7 6.6 79 1.7 WNW 19 24 10 13 - - 3.4
30/12:00am 10.3 6.6 7.9 85 1.2 NW 17 20 9 11 - - 3.4
 
Date/Time
EDT
Temp
°C
App
Temp
°C
Dew
Point
Rel
Hum
%
Delta-T
°C
Wind Press
QNH
hPa
Press
MSL
hPa
Rain
since 9 am
mm
Dir
 
Spd
km/h
Gust
km/h
Spd
kts
Gust
kts
29/11:30pm 10.3 5.9 7.5 83 1.4 NW 20 30 11 16 - - 3.4
29/11:00pm 10.3 4.4 7.5 83 1.4 NW 28 33 15 18 - - 3.4
29/10:30pm 10.4 6.2 7.5 82 1.4 NW 19 24 10 13 - - 3.4
29/10:00pm 10.3 6.5 7.4 82 1.4 WNW 17 20 9 11 - - 3.4
29/09:30pm 10.3 5.9 7.2 81 1.5 WNW 20 26 11 14 - - 3.4
29/09:00pm 10.2 4.9 6.9 80 1.6 WNW 24 32 13 17 - - 3.4
29/08:30pm 10.1 3.8 7.2 82 1.4 WNW 30 37 16 20 - - 3.4
29/08:00pm 10.0 2.4 7.4 84 1.3 WNW 37 46 20 25 - - 3.4
29/07:30pm 10.2 2.6 7.6 84 1.3 WNW 37 48 20 26 - - 3.4
29/07:18pm 10.2 3.6 7.8 85 1.2 NW 32 50 17 27 - - 3.4
29/07:00pm 10.1 3.0 8.0 87 1.0 WNW 35 46 19 25 - - 3.4
29/06:30pm 10.3 3.6 8.1 86 1.1 NW 33 41 18 22 - - 3.4
29/06:00pm 10.6 3.8 7.8 83 1.4 WNW 33 44 18 24 - - 3.4
29/05:30pm 10.6 4.2 9.2 91 0.7 NW 33 41 18 22 - - 3.4
29/05:00pm 10.8 5.5 9.7 93 0.6 NW 28 37 15 20 - - 3.4

Other Formats:

Comma delimited format used in spreadsheet applications
http://www.bom.gov.au/fwo/IDT60801/IDT60801.95958.axf

JavaScript Object Notation format (JSON) in row-major order
http://www.bom.gov.au/fwo/IDT60801/IDT60801.95958.json